Latest Weather Observations for Alice Springs Airport

IDD60801

Issued at 10:35 pm CST Wednesday 30 July 2014 (issued every 30 minutes, with the page automatically refreshed every 10 minutes)

About weather observations | Map of weather stations | Latest weather observations for NT | Other Formats
Station Details ID: 015590 Name: ALICE SPRINGS AIRPORT Lat: -23.80 Lon: 133.89 Height: 546.0 m
Data from the previous 72 hours. | See also: Recent months at Alice Springs Airport
Date/Time
CST
Temp
°C
App
Temp
°C
Dew
Point
Rel
Hum
%
Delta-T
°C
Wind Press
QNH
hPa
Press
MSL
hPa
Rain
since 9 am
mm
Dir
 
Spd
km/h
Gust
km/h
Spd
kts
Gust
kts
30/10:30pm 10.4 8.2 -1.2 44 4.7 ESE 0 0 0 0 1021.3 1021.1 0.0
30/10:00pm 9.6 6.5 1.4 56 3.5 S 7 9 4 5 1021.3 - 0.0
30/09:30pm 10.7 8.8 0.5 49 4.3 CALM 0 0 0 0 1021.2 1021.0 0.0
30/09:00pm 11.8 8.9 -1.1 41 5.3 E 4 7 2 4 1021.3 1021.1 0.0
30/08:30pm 13.3 9.7 -1.8 35 6.2 ENE 7 9 4 5 1021.2 1021.0 0.0
30/08:00pm 13.8 11.5 -2.4 32 6.6 CALM 0 0 0 0 1021.1 - 0.0
30/07:30pm 14.0 10.9 1.4 42 5.6 ESE 7 15 4 8 1020.8 1020.6 0.0
30/07:00pm 18.4 14.7 -2.5 24 8.9 ENE 7 9 4 5 1020.5 - 0.0
30/06:30pm 19.0 15.6 -0.9 26 8.8 ENE 7 9 4 5 1020.3 1020.0 0.0
30/06:00pm 20.5 16.8 -2.6 21 10.0 NE 7 9 4 5 1020.1 1019.8 0.0
30/05:30pm 22.9 19.0 -5.1 15 11.8 NE 7 13 4 7 1020.1 1019.8 0.0
30/05:00pm 22.9 19.0 -6.1 14 12.0 NNE 6 13 3 7 1020.0 - 0.0
30/04:30pm 23.1 17.8 -7.2 12 12.3 ENE 13 19 7 10 1019.9 1019.6 0.0
30/04:00pm 23.7 18.6 -5.5 14 12.3 NE 13 20 7 11 1020.0 - 0.0
30/03:30pm 23.1 18.1 -4.6 15 11.8 E 13 24 7 13 1020.3 1020.0 0.0
30/03:00pm 24.1 19.5 -4.4 14 12.3 ENE 11 24 6 13 1020.5 1020.3 0.0
30/02:30pm 22.9 18.6 -5.1 15 11.8 ESE 9 22 5 12 1020.9 1020.7 0.0
30/02:00pm 23.0 17.6 -4.9 15 11.8 E 15 20 8 11 1021.4 - 0.0
30/01:30pm 23.0 17.1 -5.9 14 12.0 ESE 17 22 9 12 1022.0 1021.7 0.0
30/01:00pm 23.2 17.6 -5.9 14 12.1 ESE 15 28 8 15 1022.5 - 0.0
30/12:30pm 22.7 17.0 -3.7 17 11.4 SE 17 20 9 11 1023.0 1022.8 0.0
30/12:00pm 22.4 16.1 -4.0 17 11.3 ESE 20 26 11 14 1023.4 1023.2 0.0
30/11:30am 22.3 16.6 -3.8 17 11.2 ENE 17 24 9 13 1023.8 1023.6 0.0
30/11:00am 21.2 17.9 -1.5 22 10.1 ENE 6 11 3 6 1024.1 - 0.0
30/10:30am 19.7 16.8 -1.1 24 9.2 E 4 11 2 6 1024.4 1024.2 0.0
30/10:00am 18.7 16.7 -0.1 28 8.4 CALM 0 4 0 2 1024.6 - 0.0
30/09:30am 17.7 15.8 0.6 31 7.7 CALM 0 0 0 0 1024.6 1024.4 0.0
30/09:00am 14.7 12.7 2.1 42 5.7 WNW 2 6 1 3 1024.5 1024.3 0.0
30/08:30am 12.3 9.4 1.3 47 4.8 NW 6 7 3 4 1024.1 1023.9 0.0
30/08:00am 8.6 5.5 1.5 61 3.0 W 7 9 4 5 1023.9 - 0.0
30/07:30am 6.7 3.5 0.8 66 2.4 WNW 7 7 4 4 1023.5 1023.3 0.0
30/07:00am 8.9 5.1 -0.5 51 3.8 NNW 9 9 5 5 1023.2 - 0.0
30/06:30am 8.0 3.9 -0.2 56 3.3 N 11 13 6 7 1023.2 1023.0 0.0
30/06:00am 6.6 2.6 0.7 66 2.4 N 11 15 6 8 1023.0 1022.8 0.0
30/05:30am 5.7 2.3 1.8 76 1.6 S 9 11 5 6 1022.7 1022.5 0.0
30/05:00am 7.2 4.1 1.2 65 2.5 WNW 7 9 4 5 1022.3 - 0.0
30/04:30am 7.2 3.2 0.6 63 2.7 WNW 11 11 6 6 1022.4 1022.2 0.0
30/04:00am 7.9 3.9 0.6 60 3.0 WNW 11 13 6 7 1022.5 - 0.0
30/03:30am 7.7 4.5 0.9 62 2.8 WNW 7 9 4 5 1022.8 1022.6 0.0
30/03:00am 8.7 5.7 0.8 57 3.3 W 6 7 3 4 1022.9 1022.7 0.0
30/02:30am 8.4 5.3 1.5 62 2.9 WNW 7 7 4 4 1023.0 1022.8 0.0
30/02:00am 8.7 5.7 1.9 62 2.9 W 7 9 4 5 1023.4 - 0.0
30/01:30am 8.5 5.5 1.7 62 2.9 W 7 9 4 5 1023.4 1023.2 0.0
30/01:00am 8.2 5.5 2.7 68 2.4 W 6 11 3 6 1023.5 - 0.0
30/12:30am 10.9 7.3 0.5 48 4.4 N 9 9 5 5 1023.5 1023.3 0.0
30/12:00am 10.9 7.4 1.4 52 4.1 NNW 9 9 5 5 1023.5 1023.3 0.0
 
Date/Time
CST
Temp
°C
App
Temp
°C
Dew
Point
Rel
Hum
%
Delta-T
°C
Wind Press
QNH
hPa
Press
MSL
hPa
Rain
since 9 am
mm
Dir
 
Spd
km/h
Gust
km/h
Spd
kts
Gust
kts
29/11:30pm 10.8 8.1 0.6 49 4.3 SW 4 7 2 4 1023.8 1023.6 0.0
29/11:00pm 12.5 8.9 0.6 44 5.1 ESE 9 11 5 6 1023.9 - 0.0
29/10:30pm 12.5 9.8 2.5 50 4.5 SSE 6 6 3 3 1023.8 1023.6 0.0
29/10:00pm 12.5 9.4 1.3 46 4.9 ENE 7 11 4 6 1023.8 - 0.0
29/09:30pm 14.7 10.7 0.2 37 6.3 ENE 11 13 6 7 1023.8 1023.6 0.0
29/09:00pm 13.9 10.8 1.2 42 5.6 NE 7 11 4 6 1023.8 1023.6 0.0
29/08:30pm 15.1 11.5 0.5 37 6.4 E 9 9 5 5 1023.4 1023.2 0.0
29/08:00pm 15.3 11.3 0.5 36 6.5 ESE 11 11 6 6 1023.0 - 0.0
29/07:30pm 16.2 12.7 1.4 36 6.7 ESE 9 11 5 6 1022.6 1022.4 0.0
29/07:00pm 19.2 14.9 -1.3 25 9.0 ESE 11 13 6 7 1022.2 - 0.0
29/06:30pm 19.1 15.0 -0.4 27 8.7 SE 11 13 6 7 1021.8 1021.5 0.0
29/06:00pm 21.7 17.1 -1.2 21 10.3 ESE 13 15 7 8 1021.5 1021.3 0.0
29/05:30pm 23.2 18.8 -2.5 18 11.4 ESE 11 15 6 8 1021.2 1021.0 0.0
29/05:00pm 24.1 19.3 -2.5 17 11.9 SE 13 20 7 11 1021.0 - 0.0
29/04:30pm 24.3 20.4 -1.6 18 11.8 SSW 9 11 5 6 1021.0 1020.8 0.0
29/04:00pm 24.6 18.7 -2.2 17 12.1 ESE 19 22 10 12 1020.9 - 0.0
29/03:30pm 24.8 20.0 -2.6 16 12.3 SSE 13 24 7 13 1020.8 1020.6 0.0
29/03:00pm 24.5 19.7 -2.4 16 12.1 ESE 13 19 7 10 1020.9 1020.7 0.0
29/02:30pm 24.6 20.5 -0.5 19 11.7 SE 11 17 6 9 1021.0 1020.8 0.0
29/02:00pm 25.2 20.1 -2.1 16 12.4 SSW 15 24 8 13 1021.2 - 0.0
29/01:30pm 25.4 21.9 -2.5 15 12.6 WNW 6 7 3 4 1021.9 1021.6 0.0
29/01:00pm 24.4 19.5 -3.2 16 12.2 SE 13 20 7 11 1022.3 - 0.0
29/12:30pm 24.4 20.6 -1.0 18 11.7 E 9 13 5 7 1022.8 1022.6 0.0
29/12:00pm 23.4 19.4 -2.0 18 11.4 ESE 9 17 5 9 1023.0 1022.8 0.0
29/11:30am 24.1 21.0 -0.1 20 11.3 NW 6 9 3 5 1023.3 1023.1 0.0
29/11:00am 22.0 18.8 0.5 24 10.0 WNW 7 11 4 6 1023.9 - 0.0
29/10:30am 20.7 18.0 0.1 25 9.4 W 4 9 2 5 1024.2 1024.0 0.0
29/10:00am 19.0 15.7 -0.2 27 8.6 W 7 11 4 6 1024.2 - 0.0
29/09:30am 17.7 14.2 1.3 33 7.5 W 9 11 5 6 1024.1 1023.9 0.0
29/09:00am 14.8 12.0 2.0 42 5.8 W 6 7 3 4 1023.9 1023.7 0.0
29/08:30am 12.5 9.7 2.2 49 4.6 WNW 6 9 3 5 1023.5 1023.3 0.0
29/08:00am 9.4 6.6 3.3 65 2.7 WSW 7 9 4 5 1023.2 - 0.0
29/07:30am 5.7 3.4 2.9 82 1.2 ENE 4 7 2 4 1022.9 1022.7 0.0
29/07:00am 6.8 4.0 2.3 73 1.9 ESE 6 9 3 5 1022.6 - 0.0
29/06:30am 6.4 3.5 2.4 75 1.7 SE 7 11 4 6 1022.4 1022.2 0.0
29/06:00am 7.7 5.0 2.6 70 2.2 S 6 11 3 6 1022.2 1022.0 0.0
29/05:30am 8.5 4.4 2.2 64 2.7 W 13 17 7 9 1022.2 1022.0 0.0
29/05:00am 6.9 4.7 3.2 77 1.6 NNW 4 9 2 5 1022.0 - 0.0
29/04:30am 8.9 5.5 1.9 61 3.0 NNW 9 13 5 7 1021.9 1021.6 0.0
29/04:00am 9.1 5.4 2.2 62 3.0 NNW 11 17 6 9 1022.0 - 0.0
29/03:30am 8.6 5.2 2.1 63 2.8 WNW 9 11 5 6 1022.1 1021.9 0.0
29/03:00am 9.0 7.3 2.0 61 3.0 CALM 0 0 0 0 1022.1 1021.9 0.0
29/02:30am 8.6 5.3 2.6 66 2.6 W 9 11 5 6 1022.0 1021.7 0.0
29/02:00am 9.0 7.5 2.8 65 2.7 CALM 0 2 0 1 1022.1 - 0.0
29/01:30am 8.5 6.0 3.5 71 2.2 NW 6 9 3 5 1022.2 1022.0 0.0
29/01:00am 11.9 7.7 1.9 50 4.4 N 13 13 7 7 1022.2 - 0.0
29/12:30am 10.7 8.0 2.6 57 3.6 N 6 7 3 4 1022.3 1022.1 0.0
29/12:00am 11.1 7.8 2.2 54 3.9 NW 9 17 5 9 1022.4 1022.2 0.0
 
Date/Time
CST
Temp
°C
App
Temp
°C
Dew
Point
Rel
Hum
%
Delta-T
°C
Wind Press
QNH
hPa
Press
MSL
hPa
Rain
since 9 am
mm
Dir
 
Spd
km/h
Gust
km/h
Spd
kts
Gust
kts
28/11:30pm 13.0 9.1 1.4 45 5.1 NNW 11 13 6 7 1022.4 1022.2 0.0
28/11:00pm 13.0 9.2 1.7 46 5.0 NNW 11 13 6 7 1022.4 - 0.0
28/10:30pm 12.0 8.7 2.6 52 4.2 WSW 9 11 5 6 1022.5 1022.3 0.0
28/10:00pm 13.2 10.2 2.3 47 4.9 NW 7 9 4 5 1022.2 - 0.0
28/09:30pm 14.3 11.4 2.7 45 5.3 N 7 7 4 4 1022.2 1022.0 0.0
28/09:00pm 14.7 11.7 2.1 42 5.7 NNE 7 9 4 5 1021.8 1021.5 0.0
28/08:30pm 15.3 12.5 3.0 43 5.7 NNE 7 7 4 4 1021.6 1021.4 0.0
28/08:00pm 15.1 11.5 2.7 43 5.7 ESE 11 13 6 7 1021.4 - 0.0
28/07:30pm 16.6 12.9 2.6 39 6.5 SE 11 13 6 7 1021.1 1020.9 0.0
28/07:00pm 18.2 14.5 4.2 39 6.8 SE 13 15 7 8 1020.8 - 0.0
28/06:30pm 18.9 14.7 1.7 31 8.0 SSE 13 13 7 7 1020.4 1020.1 0.0
28/06:00pm 21.8 17.9 0.9 25 9.8 SSE 11 13 6 7 1020.2 1019.9 0.0
28/05:30pm 24.1 19.9 -0.8 19 11.5 S 11 13 6 7 1020.0 1019.7 0.0
28/05:00pm 24.9 20.7 -1.0 18 12.0 W 11 17 6 9 1019.7 - 0.0
28/04:30pm 25.3 21.4 -1.3 17 12.3 S 9 15 5 8 1019.6 1019.4 0.0
28/04:00pm 24.7 20.3 -2.4 16 12.2 WSW 11 19 6 10 1019.6 - 0.0
28/03:30pm 25.3 21.2 -2.7 15 12.6 SW 9 15 5 8 1019.9 1019.6 0.0
28/03:00pm 25.8 21.1 -1.9 16 12.7 S 13 22 7 12 1020.1 1019.8 0.0
28/02:30pm 24.9 21.3 -1.9 17 12.2 W 7 19 4 10 1020.4 1020.1 0.0
28/02:00pm 24.8 20.2 -0.9 18 11.9 SSW 13 17 7 9 1021.0 - 0.0
28/01:30pm 24.5 20.4 0.1 20 11.5 SSW 11 17 6 9 1021.5 1021.3 0.0
28/01:00pm 24.4 20.6 -1.0 18 11.7 NW 9 20 5 11 1022.0 - 0.0
28/12:30pm 24.3 21.1 -0.4 19 11.5 NNW 6 13 3 7 1022.6 1022.4 0.0
28/12:00pm 23.8 20.1 -0.3 20 11.2 N 9 17 5 9 1023.1 1022.9 0.0
28/11:30am 22.7 19.5 0.8 23 10.3 NNW 7 13 4 7 1023.8 1023.6 0.0
28/11:00am 21.6 18.5 1.5 26 9.5 N 7 11 4 6 1024.2 - 0.0
28/10:30am 20.5 17.0 1.2 27 9.0 N 9 13 5 7 1024.4 1024.2 0.0
28/10:00am 19.2 16.7 1.5 30 8.2 NNW 4 7 2 4 1024.5 - 0.0
28/09:30am 17.0 15.1 2.6 38 6.7 W 2 7 1 4 1024.4 1024.2 0.0
28/09:00am 13.5 11.3 3.6 51 4.6 W 4 9 2 5 1024.3 1024.1 0.0
28/08:30am 10.4 7.2 3.2 61 3.2 W 9 13 5 7 1024.2 1024.0 0.0
28/08:00am 8.8 6.3 3.6 70 2.3 W 6 11 3 6 1023.9 - 0.0
28/07:30am 6.3 3.0 2.5 77 1.6 NW 9 11 5 6 1023.6 1023.5 0.0
28/07:00am 5.0 1.3 2.4 83 1.1 WNW 11 11 6 6 1023.6 - 0.0
28/06:30am 7.2 3.3 1.4 66 2.4 NNW 11 13 6 7 1023.4 1023.2 0.0
28/06:00am 5.9 2.2 2.1 76 1.6 WNW 11 13 6 7 1023.2 1023.0 0.0
28/05:30am 6.2 2.8 2.1 75 1.7 WNW 9 11 5 6 1022.9 1022.7 0.0
28/05:00am 7.0 3.6 1.7 69 2.2 WNW 9 11 5 6 1022.7 - 0.0
28/04:30am 6.1 2.4 2.3 76 1.6 WNW 11 11 6 6 1022.6 1022.4 0.0
28/04:00am 7.5 4.0 1.5 66 2.5 SE 9 11 5 6 1022.5 - 0.0
28/03:30am 7.6 3.8 1.7 66 2.5 ESE 11 13 6 7 1022.5 1022.3 0.0
28/03:00am 7.8 3.7 2.4 68 2.3 SE 13 15 7 8 1022.6 1022.4 0.0
28/02:30am 7.5 4.7 2.9 72 2.0 ESE 7 9 4 5 1022.6 1022.4 0.0
28/02:00am 7.5 4.7 3.1 73 1.9 SSE 7 9 4 5 1022.6 - 0.0
28/01:30am 9.4 6.7 2.5 62 3.0 N 6 11 3 6 1022.7 1022.5 0.0
28/01:00am 9.6 5.5 2.0 59 3.3 N 13 15 7 8 1022.8 - 0.0
28/12:30am 10.1 6.8 2.3 58 3.4 N 9 11 5 6 1023.3 1023.1 0.0
28/12:00am 11.0 8.1 2.4 55 3.8 N 7 9 4 5 1023.5 1023.3 0.0
 
Date/Time
CST
Temp
°C
App
Temp
°C
Dew
Point
Rel
Hum
%
Delta-T
°C
Wind Press
QNH
hPa
Press
MSL
hPa
Rain
since 9 am
mm
Dir
 
Spd
km/h
Gust
km/h
Spd
kts
Gust
kts
27/11:30pm 10.4 7.5 2.4 57 3.5 ENE 7 9 4 5 1023.6 1023.5 0.0
27/11:00pm 10.9 8.2 2.5 56 3.7 E 6 9 3 5 1023.9 - 0.0

Other Formats:

Comma delimited format used in spreadsheet applications
http://www.bom.gov.au/fwo/IDD60801/IDD60801.94326.axf

JavaScript Object Notation format (JSON) in row-major order
http://www.bom.gov.au/fwo/IDD60801/IDD60801.94326.json